UACC Airport Information

Runway Information
Runway 04 Length 11484 ft width 147 ft
Elevation 1165 ft Threshold 0 ft Heading 45
Runway 22 Length 11484 ft Width 147 ft
Elevation 1158 ft Threshold 0 ft Heading 225
Airport Frequencies
Type APP Name APP Frequency 124.6 MHZ
Type ATIS Name ATIS Frequency 128.3 MHZ
Type RDR Name RADAR Frequency 124.6 MHZ
Type TWR Name TWR Frequency 118.7 MHZ
Airport Navaids
Type NDB Name Astana Frequency 318 KHZ
Type VOR-DME Name Astana Frequency 114200 KHZ
Type NDB Name Astana Frequency 318 KHZ
Airport Weather Information & NOTAM
ADDS - METARS form results

(2035 UTC 23 April 2019)
Data provider http://aviationweather.gov/metar/data/
 
METAR text: UACC 232030Z 21003MPS CAVOK M01/M03 Q1016 R22/0///70 NOSIG RMK QFE731/0974
Conditions at: UACC (ASTANA KAZAKHSTA, KZ) observed 2030 UTC 23 April 2019
Temperature: -1.0°C (30°F)
Dewpoint: -3.0°C (27°F) [RH = 86%]
Pressure (altimeter): 30.00 inches Hg (1016.0 mb)
Winds: from the SSW (210 degrees) at 7 MPH (6 knots; 3.1 m/s)
Visibility: 6 or more miles (10+ km)
Ceiling: ceiling and visibility are OK
Clouds: unknown
Weather: no significant weather observed at this time

METAR text: UACC 232000Z 21003MPS CAVOK M00/M02 Q1016 R22/0///70 NOSIG RMK QFE731/0974
Conditions at: UACC (ASTANA KAZAKHSTA, KZ) observed 2000 UTC 23 April 2019
Temperature: 0.0°C (32°F)
Dewpoint: -2.0°C (28°F) [RH = 86%]
Pressure (altimeter): 30.00 inches Hg (1016.0 mb)
Winds: from the SSW (210 degrees) at 7 MPH (6 knots; 3.1 m/s)
Visibility: 6 or more miles (10+ km)
Ceiling: ceiling and visibility are OK
Clouds: unknown
Weather: no significant weather observed at this time

Forecast for: UACC (ASTANA KAZAKHSTA, KZ)
Text: TAF UACC 2318/2418 24004MPS 9999 SCT030 BKN100 TX15/2410Z TN00/2401Z
Forecast period: 1800 UTC 23 April 2019 to 1800 UTC 24 April 2019
Forecast type: FROM: standard forecast or significant change
Winds: from the WSW (240 degrees) at 9 MPH (8 knots; 4.1 m/s)
Visibility: 6 or more miles 10+ km)
Ceiling: 10000 feet AGL
Clouds: scattered clouds at 3000 feet AGL
broken clouds at 10000 feet AGL
Weather: no significant weather forecast for this period
Text: TEMPO 2406/2418 SCT030CB
Forecast period: 0600 to 1800 UTC 24 April 2019
Forecast type: TEMPORARY: The following changes expected for less than half the time period
Visibility: missing
Ceiling: at least 12,000 feet AGL
Clouds: scattered clouds at 3000 feet AGL
Weather: no significant weather forecast for this period